Time;durP1;ratioP1;P1;durP2;ratioP2;P2;SDS_P1;SDS_P2;PMS_P1;PMS_P2;Temp;Humidity;BMP_temperature;BMP_pressure;BME280_temperature;BME280_humidity;BME280_pressure;Samples;Min_cycle;Max_cycle;Signal;HPM_P1;HPM_P2
2023/07/27 00:02:01;;;;;;;8.13;4.60;;;;;;;19.46;87.41;100893.66;5295013;28;20028;-74
2023/07/27 00:04:33;;;;;;;7.87;4.10;;;;;;;19.52;89.76;100902.88;5295069;28;20154;-81
2023/07/27 00:07:05;;;;;;;7.87;3.80;;;;;;;19.50;86.89;100904.00;5294774;28;20131;-79
2023/07/27 00:09:36;;;;;;;7.50;3.63;;;;;;;19.52;89.77;100900.22;5295250;28;20161;-77
2023/07/27 00:12:07;;;;;;;5.93;3.47;;;;;;;19.54;91.26;100895.59;5295302;28;20105;-78
2023/07/27 00:14:39;;;;;;;4.97;3.93;;;;;;;19.43;90.53;100893.13;5287482;28;20032;-77
2023/07/27 00:17:10;;;;;;;10.53;4.80;;;;;;;19.38;93.71;100888.28;5295091;28;20024;-77
2023/07/27 00:19:41;;;;;;;4.90;3.90;;;;;;;19.39;90.85;100889.94;5274137;28;20023;-77
2023/07/27 00:22:13;;;;;;;9.60;3.70;;;;;;;18.82;100.00;100872.31;5277242;28;20097;-75
2023/07/27 00:24:44;;;;;;;6.30;3.63;;;;;;;19.24;96.98;100884.31;5294885;28;20031;-74
2023/07/27 00:27:15;;;;;;;7.50;5.00;;;;;;;19.30;96.87;100883.72;5290797;28;20031;-74
2023/07/27 00:29:47;;;;;;;7.67;3.77;;;;;;;19.28;97.84;100885.69;5293668;28;20465;-75
2023/07/27 00:32:18;;;;;;;7.73;4.23;;;;;;;19.22;100.00;100880.97;5302288;28;20031;-73
2023/07/27 00:34:52;;;;;;;7.90;4.33;;;;;;;19.33;99.37;100878.13;5270800;28;20020;-74
2023/07/27 00:37:25;;;;;;;9.53;5.13;;;;;;;19.18;100.00;100874.28;5297555;28;20035;-75
2023/07/27 00:39:56;;;;;;;6.87;3.70;;;;;;;19.26;100.00;100879.69;5275824;28;20036;-74
2023/07/27 00:42:27;;;;;;;8.30;4.40;;;;;;;19.18;100.00;100872.44;5276879;28;20592;-74
2023/07/27 00:44:59;;;;;;;5.70;3.70;;;;;;;19.14;100.00;100859.63;5286669;28;20119;-75
2023/07/27 00:47:30;;;;;;;9.67;4.50;;;;;;;19.13;100.00;100861.44;5274154;28;20414;-74
2023/07/27 00:50:02;;;;;;;7.40;4.07;;;;;;;19.10;100.00;100851.94;5264445;28;20024;-74
2023/07/27 00:52:33;;;;;;;6.67;4.20;;;;;;;19.09;100.00;100850.25;5279494;28;20113;-76
2023/07/27 00:55:05;;;;;;;7.57;4.47;;;;;;;19.13;100.00;100850.00;5292676;28;20020;-76
2023/07/27 00:57:36;;;;;;;6.33;4.43;;;;;;;18.93;100.00;100842.13;5294788;28;20040;-72
2023/07/27 01:00:08;;;;;;;7.80;4.13;;;;;;;18.65;100.00;100842.09;5295078;28;20056;-75
2023/07/27 01:02:40;;;;;;;7.07;4.40;;;;;;;18.45;100.00;100836.88;5276040;28;20028;-73
2023/07/27 01:05:12;;;;;;;7.93;5.03;;;;;;;18.69;100.00;100825.75;5314999;22;20060;-75
2023/07/27 01:07:43;;;;;;;6.37;4.80;;;;;;;18.49;100.00;100817.88;5279503;28;20040;-74
2023/07/27 01:10:15;;;;;;;7.27;4.40;;;;;;;18.80;100.00;100819.41;5272845;28;20082;-75
2023/07/27 01:12:52;;;;;;;6.90;4.87;;;;;;;18.72;100.00;100811.34;5273428;28;20471;-76
2023/07/27 01:15:28;;;;;;;7.37;5.40;;;;;;;18.78;100.00;100812.59;5272913;28;20035;-76
2023/07/27 01:18:10;;;;;;;9.30;5.80;;;;;;;18.75;100.00;100821.66;5268396;28;20070;-73
2023/07/27 01:20:51;;;;;;;6.30;4.73;;;;;;;18.66;100.00;100817.25;5273184;28;20032;-75
2023/07/27 01:23:51;;;;;;;6.53;5.07;;;;;;;18.94;100.00;100809.28;5271575;28;20032;-75
2023/07/27 01:26:39;;;;;;;8.07;5.67;;;;;;;18.59;100.00;100791.28;5262919;28;20120;-76
2023/07/27 01:29:47;;;;;;;7.83;5.43;;;;;;;18.85;100.00;100811.03;5270920;28;20028;-75
2023/07/27 01:32:21;;;;;;;11.63;4.50;;;;;;;18.66;100.00;100801.34;5263787;28;20027;-75
2023/07/27 01:34:57;;;;;;;5.90;4.95;;;;;;;18.74;100.00;100804.09;5252349;28;20038;-75
2023/07/27 01:37:30;;;;;;;8.53;5.43;;;;;;;18.28;100.00;100788.91;5271941;28;20099;-75
2023/07/27 01:40:04;;;;;;;6.88;6.10;;;;;;;18.20;100.00;100788.78;5252496;28;20036;-76
2023/07/27 01:42:36;;;;;;;8.15;4.88;;;;;;;17.94;100.00;100776.13;5273779;28;20028;-75
2023/07/27 01:45:09;;;;;;;6.33;4.87;;;;;;;18.07;100.00;100781.97;5276646;28;20013;-74
2023/07/27 01:47:43;;;;;;;9.87;5.80;;;;;;;18.07;100.00;100776.66;5275033;28;20021;-75
2023/07/27 01:50:16;;;;;;;8.70;6.22;;;;;;;18.09;100.00;100774.69;5276065;28;20020;-74
2023/07/27 01:52:48;;;;;;;11.03;6.03;;;;;;;18.26;100.00;100774.94;5276903;28;20028;-74
2023/07/27 01:55:22;;;;;;;9.13;5.53;;;;;;;17.78;100.00;100772.25;5274808;28;20012;-75
2023/07/27 01:57:54;;;;;;;11.88;5.65;;;;;;;18.10;100.00;100765.75;5276377;28;20029;-76
2023/07/27 02:00:27;;;;;;;8.67;6.47;;;;;;;18.05;100.00;100762.72;5257821;28;20029;-76
2023/07/27 02:02:59;;;;;;;6.80;5.30;;;;;;;18.12;100.00;100757.66;5275792;28;20039;-75
2023/07/27 02:05:30;;;;;;;10.03;5.87;;;;;;;17.54;100.00;100741.75;5257280;28;20045;-73
2023/07/27 02:08:02;;;;;;;8.37;6.10;;;;;;;17.74;100.00;100741.72;5275774;28;20387;-75
2023/07/27 02:10:34;;;;;;;7.77;5.80;;;;;;;17.72;100.00;100727.78;5276822;28;20107;-76
2023/07/27 02:13:15;;;;;;;9.07;6.17;;;;;;;18.07;100.00;100734.25;5276343;28;20731;-76
2023/07/27 02:15:51;;;;;;;9.43;6.27;;;;;;;17.93;100.00;100726.75;5276879;28;20450;-76
2023/07/27 02:18:24;;;;;;;7.93;5.27;;;;;;;17.97;100.00;100712.25;5256513;28;20029;-74
2023/07/27 02:20:56;;;;;;;8.93;6.10;;;;;;;17.93;100.00;100716.16;5276559;28;20036;-75
2023/07/27 02:23:30;;;;;;;8.03;6.00;;;;;;;17.57;100.00;100711.50;5275623;28;20021;-75
2023/07/27 02:26:01;;;;;;;7.32;5.93;;;;;;;17.87;100.00;100705.16;5262955;28;20112;-75
2023/07/27 02:28:33;;;;;;;11.40;6.87;;;;;;;17.93;100.00;100697.63;5276526;28;20020;-75
2023/07/27 02:31:05;;;;;;;8.63;6.20;;;;;;;17.95;100.00;100687.72;5270384;28;20032;-76
2023/07/27 02:33:36;;;;;;;8.27;6.30;;;;;;;17.88;100.00;100690.94;5268467;28;20028;-75
2023/07/27 02:36:07;;;;;;;7.63;6.10;;;;;;;17.92;100.00;100672.97;5276188;28;20061;-76
2023/07/27 02:38:39;;;;;;;9.17;6.90;;;;;;;17.71;100.00;100681.09;5276176;28;20038;-76
2023/07/27 02:41:10;;;;;;;8.40;6.23;;;;;;;17.75;100.00;100678.00;5257794;28;20025;-76
2023/07/27 02:43:42;;;;;;;9.33;6.73;;;;;;;17.56;100.00;100667.47;5266443;28;20072;-75
2023/07/27 02:46:13;;;;;;;7.37;6.40;;;;;;;17.47;100.00;100664.69;5275923;28;20084;-76
2023/07/27 02:48:44;;;;;;;10.20;6.53;;;;;;;17.35;100.00;100653.41;5258941;28;20025;-74
2023/07/27 02:51:16;;;;;;;9.13;6.73;;;;;;;17.68;100.00;100660.19;5278903;28;20028;-75
2023/07/27 02:53:47;;;;;;;9.30;5.97;;;;;;;17.46;100.00;100656.88;5280148;28;20078;-73
2023/07/27 02:56:18;;;;;;;10.67;6.63;;;;;;;17.61;100.00;100666.06;5278956;28;20147;-77
2023/07/27 02:58:52;;;;;;;9.00;5.97;;;;;;;17.62;100.00;100657.16;5269786;28;20287;-75
2023/07/27 03:01:23;;;;;;;10.05;6.72;;;;;;;17.50;100.00;100659.13;5263331;28;20056;-75
2023/07/27 03:03:55;;;;;;;9.40;6.23;;;;;;;17.26;100.00;100636.56;5278580;28;20067;-74
2023/07/27 03:06:26;;;;;;;11.10;6.83;;;;;;;17.35;100.00;100645.47;5261575;28;20498;-76
2023/07/27 03:08:57;;;;;;;10.53;6.60;;;;;;;17.32;100.00;100634.34;5267665;28;20028;-76
2023/07/27 03:11:28;;;;;;;13.57;7.17;;;;;;;17.17;100.00;100635.59;5276105;28;20028;-76
2023/07/27 03:14:00;;;;;;;10.47;6.90;;;;;;;17.21;100.00;100619.47;5267108;28;20107;-74
2023/07/27 03:16:32;;;;;;;9.20;6.43;;;;;;;17.23;100.00;100625.44;5253825;28;20031;-75
2023/07/27 03:19:03;;;;;;;11.03;6.27;;;;;;;17.48;100.00;100623.16;5275198;28;20016;-76
2023/07/27 03:21:34;;;;;;;11.33;7.27;;;;;;;17.34;100.00;100617.34;5275891;28;20035;-73
2023/07/27 03:24:07;;;;;;;7.90;6.00;;;;;;;17.27;100.00;100605.66;5275015;28;20103;-76
2023/07/27 03:26:38;;;;;;;6.87;6.07;;;;;;;17.28;100.00;100607.31;5273317;28;20052;-76
2023/07/27 03:29:10;;;;;;;7.33;5.57;;;;;;;17.24;100.00;100584.78;5270371;28;20063;-74
2023/07/27 03:31:41;;;;;;;8.23;5.33;;;;;;;17.02;100.00;100589.38;5257226;28;20621;-76
2023/07/27 03:34:12;;;;;;;8.20;5.37;;;;;;;17.06;100.00;100577.53;5256747;28;20035;-76
2023/07/27 03:36:43;;;;;;;8.00;6.20;;;;;;;17.08;100.00;100565.00;5262924;28;20498;-76
2023/07/27 03:39:15;;;;;;;8.80;6.10;;;;;;;16.99;100.00;100563.19;5262246;28;20100;-74
2023/07/27 03:41:46;;;;;;;7.63;5.87;;;;;;;16.88;100.00;100562.38;5264189;28;20051;-74
2023/07/27 03:44:17;;;;;;;7.73;6.00;;;;;;;16.73;100.00;100555.84;5256381;28;20025;-76
2023/07/27 03:46:49;;;;;;;8.53;6.17;;;;;;;16.91;100.00;100546.22;5256938;28;20025;-76
2023/07/27 03:49:21;;;;;;;11.87;6.77;;;;;;;16.67;100.00;100536.91;5255781;28;20020;-76
2023/07/27 03:51:52;;;;;;;8.10;6.43;;;;;;;17.00;100.00;100526.03;5274563;28;20765;-76
2023/07/27 03:54:23;;;;;;;8.00;5.50;;;;;;;16.75;100.00;100527.44;5262904;28;20116;-76
2023/07/27 03:56:55;;;;;;;8.37;5.63;;;;;;;16.76;100.00;100527.31;5274821;28;20078;-76
2023/07/27 03:59:26;;;;;;;10.27;6.23;;;;;;;16.94;100.00;100521.31;5273968;28;20051;-73
2023/07/27 04:01:57;;;;;;;9.07;5.47;;;;;;;16.76;100.00;100524.66;5272893;28;20043;-74
2023/07/27 04:04:29;;;;;;;7.93;4.70;;;;;;;16.71;100.00;100518.13;5272884;28;20037;-75
2023/07/27 04:07:00;;;;;;;5.83;4.53;;;;;;;16.76;100.00;100518.53;5264442;28;20123;-74
2023/07/27 04:09:31;;;;;;;7.50;4.90;;;;;;;16.88;100.00;100512.13;5274006;28;20111;-76
2023/07/27 04:12:03;;;;;;;6.43;5.20;;;;;;;16.77;100.00;100514.94;5273727;28;20028;-76
2023/07/27 04:14:34;;;;;;;6.57;4.30;;;;;;;16.85;100.00;100523.00;5266121;28;20032;-76
2023/07/27 04:17:05;;;;;;;6.90;5.13;;;;;;;16.71;100.00;100513.69;5271524;28;20739;-75
2023/07/27 04:19:37;;;;;;;4.70;3.90;;;;;;;16.66;100.00;100506.19;5256027;28;20036;-75
2023/07/27 04:22:08;;;;;;;6.03;4.40;;;;;;;16.66;100.00;100506.19;5260900;28;20040;-75
2023/07/27 04:24:44;;;;;;;6.20;3.50;;;;;;;16.65;100.00;100506.31;5274465;28;20035;-75
2023/07/27 04:27:15;;;;;;;8.37;4.00;;;;;;;16.69;100.00;100495.31;5253638;28;20166;-76
2023/07/27 04:29:47;;;;;;;4.77;3.70;;;;;;;16.65;100.00;100501.84;5273772;28;20550;-75
2023/07/27 04:32:18;;;;;;;4.63;3.43;;;;;;;16.73;100.00;100487.09;5253863;28;20028;-75
2023/07/27 04:34:50;;;;;;;5.67;4.00;;;;;;;16.63;100.00;100479.19;5255714;28;20036;-74
2023/07/27 04:37:21;;;;;;;4.93;2.93;;;;;;;16.63;100.00;100487.97;5264471;28;20032;-74
2023/07/27 04:39:53;;;;;;;4.53;3.20;;;;;;;16.67;100.00;100480.56;5268833;28;20036;-74
2023/07/27 04:42:24;;;;;;;5.43;3.10;;;;;;;16.64;100.00;100478.19;5251044;28;20025;-74
2023/07/27 04:44:55;;;;;;;7.13;3.97;;;;;;;16.68;100.00;100482.25;5260023;28;20029;-75
2023/07/27 04:47:27;;;;;;;6.30;3.60;;;;;;;16.64;100.00;100467.63;5267259;28;20055;-75
2023/07/27 04:49:58;;;;;;;6.73;3.50;;;;;;;16.79;100.00;100468.03;5273935;28;20060;-75
2023/07/27 04:52:29;;;;;;;5.60;3.73;;;;;;;16.74;100.00;100467.63;5272941;28;20055;-75
2023/07/27 04:55:01;;;;;;;5.20;3.20;;;;;;;16.73;100.00;100460.66;5273221;28;20111;-75
2023/07/27 04:57:32;;;;;;;5.33;3.17;;;;;;;16.78;100.00;100458.41;5259959;28;20150;-75
2023/07/27 05:00:04;;;;;;;7.17;3.53;;;;;;;16.82;100.00;100457.16;5272489;28;20707;-74
2023/07/27 05:02:36;;;;;;;7.10;4.03;;;;;;;16.67;100.00;100447.03;5254001;28;20028;-74
2023/07/27 05:05:08;;;;;;;6.30;3.87;;;;;;;16.74;100.00;100460.50;5262791;28;20040;-74
2023/07/27 05:07:39;;;;;;;4.33;3.53;;;;;;;16.90;100.00;100446.69;5273675;28;20075;-75
2023/07/27 05:10:10;;;;;;;4.93;3.33;;;;;;;16.84;100.00;100447.28;5254918;28;20017;-75
2023/07/27 05:12:42;;;;;;;4.60;3.33;;;;;;;16.71;100.00;100447.56;5255266;28;20051;-75
2023/07/27 05:15:13;;;;;;;4.47;3.13;;;;;;;16.78;100.00;100442.56;5276236;28;20081;-74
2023/07/27 05:17:44;;;;;;;4.27;3.20;;;;;;;16.79;100.00;100429.19;5276695;28;20036;-75
2023/07/27 05:20:16;;;;;;;5.03;3.20;;;;;;;16.95;100.00;100426.94;5266645;28;20528;-75
2023/07/27 05:22:47;;;;;;;7.17;3.87;;;;;;;16.80;100.00;100422.09;5277933;28;20044;-75
2023/07/27 05:25:18;;;;;;;4.77;3.00;;;;;;;17.02;100.00;100417.41;5276763;28;20027;-72
2023/07/27 05:27:50;;;;;;;4.40;3.20;;;;;;;16.76;100.00;100423.34;5276588;28;20063;-74
2023/07/27 05:30:21;;;;;;;5.20;3.37;;;;;;;16.86;100.00;100408.28;5259265;28;20028;-74
2023/07/27 05:32:52;;;;;;;4.03;3.37;;;;;;;16.89;100.00;100413.31;5276483;28;20039;-75
2023/07/27 05:35:24;;;;;;;3.30;2.97;;;;;;;16.84;100.00;100399.69;5276864;28;20024;-74
2023/07/27 05:37:55;;;;;;;3.67;3.17;;;;;;;16.69;100.00;100402.78;5277054;28;20025;-76
2023/07/27 05:40:26;;;;;;;3.40;2.80;;;;;;;16.86;100.00;100408.28;5266344;28;20553;-75
2023/07/27 05:42:57;;;;;;;4.37;3.07;;;;;;;16.91;100.00;100418.44;5277038;28;20020;-73
2023/07/27 05:45:29;;;;;;;4.87;2.70;;;;;;;16.78;100.00;100398.44;5276437;28;20028;-74
2023/07/27 05:48:00;;;;;;;4.33;2.60;;;;;;;16.93;100.00;100405.91;5254876;28;20170;-74
2023/07/27 05:50:32;;;;;;;4.03;2.77;;;;;;;16.94;100.00;100402.28;5270713;28;20040;-75
2023/07/27 05:53:05;;;;;;;4.60;2.73;;;;;;;16.92;100.00;100396.28;5277035;28;20067;-75
2023/07/27 05:55:36;;;;;;;3.10;2.70;;;;;;;16.91;100.00;100392.81;5276784;28;20053;-74
2023/07/27 05:58:07;;;;;;;4.60;2.67;;;;;;;16.96;100.00;100387.09;5276265;28;20464;-75
2023/07/27 06:00:39;;;;;;;5.27;2.67;;;;;;;16.78;100.00;100398.44;5276924;28;20024;-74
2023/07/27 06:03:10;;;;;;;2.60;2.10;;;;;;;16.95;100.00;100387.25;5274819;28;20020;-74
2023/07/27 06:05:43;;;;;;;8.40;2.30;;;;;;;17.01;100.00;100389.31;5277138;28;20054;-75
2023/07/27 06:08:14;;;;;;;4.50;2.60;;;;;;;17.00;100.00;100383.16;5274059;28;20237;-74
2023/07/27 06:10:46;;;;;;;3.70;2.47;;;;;;;17.03;100.00;100380.25;5249262;28;20119;-74
2023/07/27 06:13:17;;;;;;;4.67;2.77;;;;;;;16.98;100.00;100373.72;5276511;28;20025;-74
2023/07/27 06:15:48;;;;;;;3.37;2.20;;;;;;;17.15;100.00;100388.88;5258273;28;20031;-73
2023/07/27 06:18:20;;;;;;;2.77;2.13;;;;;;;17.11;100.00;100379.53;5275545;28;20086;-74
2023/07/27 06:20:51;;;;;;;2.33;1.87;;;;;;;17.14;100.00;100379.25;5276452;28;20028;-73
2023/07/27 06:23:23;;;;;;;2.57;1.90;;;;;;;17.13;100.00;100372.31;5275671;28;20032;-74
2023/07/27 06:25:55;;;;;;;3.83;2.23;;;;;;;17.12;100.00;100375.91;5253648;28;20060;-75
2023/07/27 06:28:27;;;;;;;3.90;2.10;;;;;;;17.25;100.00;100372.09;5278028;28;20029;-75
2023/07/27 06:31:01;;;;;;;3.73;2.10;;;;;;;17.35;100.00;100364.13;5279200;28;20013;-74
2023/07/27 06:33:32;;;;;;;2.85;1.98;;;;;;;17.31;100.00;100373.31;5276387;28;20039;-75
2023/07/27 06:36:06;;;;;;;3.80;2.20;;;;;;;17.39;100.00;100361.00;5260908;28;20029;-75
2023/07/27 06:38:38;;;;;;;3.92;1.95;;;;;;;17.46;100.00;100365.69;5276872;28;20074;-76
2023/07/27 06:41:10;;;;;;;2.73;2.07;;;;;;;17.42;100.00;100366.00;5276152;28;20029;-75
2023/07/27 06:43:41;;;;;;;2.57;1.93;;;;;;;17.45;100.00;100369.34;5274027;28;20025;-75
2023/07/27 06:46:14;;;;;;;2.93;1.90;;;;;;;17.42;100.00;100366.00;5259281;28;20023;-74
2023/07/27 06:48:46;;;;;;;3.33;1.87;;;;;;;17.44;100.00;100367.69;5275877;28;20039;-74
2023/07/27 06:51:18;;;;;;;2.57;1.87;;;;;;;17.43;100.00;100361.53;5272564;28;20025;-75
2023/07/27 06:53:49;;;;;;;4.90;1.87;;;;;;;17.44;100.00;100357.91;5274919;28;20025;-74
2023/07/27 06:56:20;;;;;;;2.90;1.80;;;;;;;17.42;100.00;100371.28;5275901;28;20020;-74
2023/07/27 06:58:52;;;;;;;3.73;1.83;;;;;;;17.55;100.00;100372.75;5256697;28;20028;-75
2023/07/27 07:01:24;;;;;;;2.37;1.90;;;;;;;17.42;100.00;100350.13;5275275;28;20547;-74
2023/07/27 07:03:56;;;;;;;2.17;1.60;;;;;;;17.52;100.00;100367.75;5274170;28;20071;-72
2023/07/27 07:06:27;;;;;;;4.30;1.93;;;;;;;17.49;100.00;100366.22;5269249;28;20445;-73
2023/07/27 07:08:59;;;;;;;1.70;1.40;;;;;;;17.56;100.00;100374.41;5269021;28;20059;-74
2023/07/27 07:11:30;;;;;;;2.83;2.00;;;;;;;17.52;100.00;100365.94;5275366;28;20027;-74
2023/07/27 07:14:01;;;;;;;2.13;1.73;;;;;;;17.52;100.00;100373.06;5252104;28;20037;-74
2023/07/27 07:16:33;;;;;;;2.37;2.13;;;;;;;17.54;100.00;100371.91;5267065;28;20064;-75
2023/07/27 07:19:04;;;;;;;2.30;1.70;;;;;;;17.52;100.00;100376.53;5256848;28;20024;-74
2023/07/27 07:21:35;;;;;;;2.37;2.17;;;;;;;17.46;100.00;100365.69;5275563;28;20036;-74
2023/07/27 07:24:07;;;;;;;3.63;2.60;;;;;;;17.53;100.00;100367.63;5268821;28;20059;-75
2023/07/27 07:26:38;;;;;;;2.17;1.97;;;;;;;17.55;100.00;100364.81;5268470;28;20035;-74
2023/07/27 07:29:09;;;;;;;2.70;1.83;;;;;;;17.61;100.00;100373.97;5275090;28;20028;-74
2023/07/27 07:31:40;;;;;;;3.10;2.03;;;;;;;17.65;100.00;100376.16;5273644;28;20090;-74
2023/07/27 07:34:12;;;;;;;2.50;2.00;;;;;;;17.63;100.00;100364.88;5256891;28;20024;-75
2023/07/27 07:36:43;;;;;;;2.93;2.00;;;;;;;17.66;100.00;100356.63;5270153;28;20545;-74
2023/07/27 07:39:15;;;;;;;2.20;1.70;;;;;;;17.79;100.00;100347.47;5256606;28;20057;-75
2023/07/27 07:41:46;;;;;;;11.50;2.27;;;;;;;17.89;100.00;100350.06;5274820;28;20047;-74
2023/07/27 07:44:17;;;;;;;3.50;1.97;;;;;;;17.97;100.00;100349.28;5274358;28;20074;-73
2023/07/27 07:46:49;;;;;;;4.27;1.87;;;;;;;18.04;100.00;100347.69;5273892;28;20497;-75
2023/07/27 07:49:20;;;;;;;2.70;1.60;;;;;;;18.03;100.00;100348.66;5269077;28;20038;-74
2023/07/27 07:51:52;;;;;;;2.17;1.70;;;;;;;18.00;100.00;100348.97;5274691;28;20028;-73
2023/07/27 07:54:23;;;;;;;2.10;1.70;;;;;;;18.01;100.00;100342.72;5274489;28;20035;-74
2023/07/27 07:56:55;;;;;;;2.07;1.80;;;;;;;18.02;100.00;100349.66;5274509;28;20024;-75
2023/07/27 07:59:26;;;;;;;2.30;1.43;;;;;;;18.02;100.00;100349.66;5273741;28;20397;-73
2023/07/27 08:01:58;;;;;;;2.10;1.30;;;;;;;17.96;100.00;100337.03;5273488;28;20471;-75
2023/07/27 08:04:30;;;;;;;1.43;1.30;;;;;;;18.06;100.00;100350.19;5271371;28;20028;-72
2023/07/27 08:07:02;;;;;;;2.20;1.73;;;;;;;17.98;100.00;100345.66;5274016;28;20110;-73
2023/07/27 08:09:33;;;;;;;1.50;1.10;;;;;;;18.05;100.00;100349.34;5273391;28;20070;-74
2023/07/27 08:12:06;;;;;;;3.47;1.60;;;;;;;18.09;100.00;100339.28;5273110;28;20490;-75
2023/07/27 08:14:37;;;;;;;1.77;1.40;;;;;;;18.03;100.00;100324.81;5255541;28;20502;-75
2023/07/27 08:17:08;;;;;;;1.07;0.97;;;;;;;18.17;100.00;100342.00;5273621;28;20101;-76
2023/07/27 08:19:40;;;;;;;3.23;1.60;;;;;;;18.15;100.00;100338.72;5273901;28;20024;-74
2023/07/27 08:22:11;;;;;;;1.73;1.50;;;;;;;18.20;100.00;100336.44;5250249;28;20017;-75
2023/07/27 08:24:43;;;;;;;1.87;1.50;;;;;;;18.30;100.00;100340.78;5267467;28;20052;-75
2023/07/27 08:27:15;;;;;;;1.33;1.23;;;;;;;18.33;100.00;100332.50;5273689;28;20020;-74
2023/07/27 08:29:46;;;;;;;1.90;1.40;;;;;;;18.39;100.00;100337.22;5274581;28;20033;-73
2023/07/27 08:32:17;;;;;;;1.67;1.07;;;;;;;18.38;100.00;100339.03;5260830;28;20024;-75
2023/07/27 08:34:49;;;;;;;1.73;1.10;;;;;;;18.36;100.00;100329.56;5274596;28;20016;-74
2023/07/27 08:37:20;;;;;;;1.40;1.10;;;;;;;18.26;100.00;100319.91;5243568;28;20029;-74
2023/07/27 08:39:51;;;;;;;2.73;1.60;;;;;;;18.45;100.00;100336.56;5256138;28;20054;-75
2023/07/27 08:42:23;;;;;;;2.60;1.57;;;;;;;18.41;100.00;100329.09;5243963;28;20136;-74
2023/07/27 08:44:54;;;;;;;1.77;1.20;;;;;;;18.48;100.00;100324.84;5273633;28;20020;-74
2023/07/27 08:47:28;;;;;;;1.60;1.50;;;;;;;18.59;100.00;100332.50;5270548;28;20108;-75
2023/07/27 08:50:01;;;;;;;1.92;1.50;;;;;;;18.56;100.00;100324.03;5253973;28;20021;-74
2023/07/27 08:52:32;;;;;;;1.50;1.40;;;;;;;18.49;100.00;100329.13;5273402;28;20027;-74
2023/07/27 08:55:05;;;;;;;3.77;1.63;;;;;;;18.49;100.00;100331.78;5240670;28;20017;-75
2023/07/27 08:57:37;;;;;;;2.47;1.40;;;;;;;18.49;100.00;100329.97;5267933;28;20028;-74
2023/07/27 09:00:12;;;;;;;2.70;1.20;;;;;;;18.53;100.00;100333.16;5273339;28;20478;-74
2023/07/27 09:02:43;;;;;;;2.13;1.20;;;;;;;18.51;100.00;100337.78;5256803;28;20098;-74
2023/07/27 09:05:15;;;;;;;2.20;1.53;;;;;;;18.54;100.00;100332.16;5269924;28;20037;-75
2023/07/27 09:07:50;;;;;;;2.37;1.30;;;;;;;18.67;100.00;100330.91;5273223;28;20028;-74
2023/07/27 09:10:22;;;;;;;1.03;0.90;;;;;;;18.59;100.00;100324.56;5255513;28;20028;-74
2023/07/27 09:12:59;;;;;;;1.90;1.00;;;;;;;18.76;100.00;100335.25;5273031;28;20173;-74
2023/07/27 09:15:32;;;;;;;2.10;1.60;;;;;;;18.69;100.00;100327.09;5261119;28;20039;-72
2023/07/27 09:18:09;;;;;;;3.33;1.30;;;;;;;18.79;100.00;100329.63;5254174;28;20380;-75
2023/07/27 09:20:41;;;;;;;2.23;1.30;;;;;;;18.77;100.00;100325.47;5273436;28;20017;-74
2023/07/27 09:23:19;;;;;;;2.63;1.37;;;;;;;18.85;100.00;100322.88;5268476;28;20791;-73
2023/07/27 09:25:54;;;;;;;1.90;1.40;;;;;;;18.82;100.00;100318.69;5273016;28;20487;-73
2023/07/27 09:28:27;;;;;;;2.67;1.40;;;;;;;18.76;100.00;100322.00;5268768;28;20024;-74
2023/07/27 09:31:00;;;;;;;2.00;1.40;;;;;;;18.76;100.00;100316.69;5273338;28;20020;-73
2023/07/27 09:33:32;;;;;;;3.37;1.20;;;;;;;18.82;100.00;100324.00;5249646;28;20036;-73
2023/07/27 09:36:03;;;;;;;1.70;1.30;;;;;;;18.93;100.00;100328.19;5254952;28;20387;-73
2023/07/27 09:38:35;;;;;;;2.37;1.47;;;;;;;18.97;100.00;100328.72;5269088;28;20048;-74
2023/07/27 09:41:08;;;;;;;5.00;1.27;;;;;;;18.95;100.00;100323.56;5271164;28;20024;-74
2023/07/27 09:43:39;;;;;;;2.93;1.43;;;;;;;19.02;100.00;100323.75;5263434;28;20482;-74
2023/07/27 09:46:11;;;;;;;2.17;1.37;;;;;;;19.07;100.00;100321.44;5267723;28;20056;-73
2023/07/27 09:48:43;;;;;;;1.80;1.30;;;;;;;19.04;100.00;100316.44;5258859;28;20040;-73
2023/07/27 09:51:16;;;;;;;1.20;0.83;;;;;;;19.08;100.00;100309.81;5257784;28;20118;-74
2023/07/27 09:53:51;;;;;;;2.07;1.30;;;;;;;19.19;100.00;100321.16;5262390;28;20091;-75
2023/07/27 09:56:22;;;;;;;1.40;0.97;;;;;;;19.17;100.00;100323.97;5272866;28;20025;-73
2023/07/27 09:58:54;;;;;;;3.33;1.13;;;;;;;19.25;100.00;100328.50;5272306;28;20122;-77
2023/07/27 10:01:26;;;;;;;2.10;1.10;;;;;;;19.21;100.00;100321.84;5272372;28;20121;-75
2023/07/27 10:03:58;;;;;;;2.30;1.20;;;;;;;19.14;100.00;100315.50;5257949;28;20044;-76
2023/07/27 10:06:30;;;;;;;0.90;0.87;;;;;;;19.17;100.00;100323.16;5278946;28;20041;-74
2023/07/27 10:09:16;;;;;;;1.80;1.30;;;;;;;19.39;100.00;100326.19;5260742;28;20109;-74
2023/07/27 10:11:56;;;;;;;3.47;1.23;;;;;;;19.41;100.00;100326.88;5262213;28;20059;-71
2023/07/27 10:14:29;;;;;;;1.17;1.07;;;;;;;19.33;100.00;100328.50;5265233;28;20033;-72
2023/07/27 10:17:07;;;;;;;1.33;1.00;;;;;;;19.33;100.00;100335.63;5280044;28;20052;-74
2023/07/27 10:19:52;;;;;;;1.20;1.00;;;;;;;19.51;100.00;100329.38;5263020;28;20021;-75
2023/07/27 10:22:25;;;;;;;1.00;0.90;;;;;;;19.42;100.00;100325.88;5279430;28;20020;-76
2023/07/27 10:25:00;;;;;;;1.58;0.82;;;;;;;19.42;100.00;100328.53;5278703;28;20028;-71
2023/07/27 10:27:58;;;;;;;1.43;1.03;;;;;;;19.49;100.00;100318.06;5264911;28;20032;-73
2023/07/27 10:30:30;;;;;;;0.97;0.87;;;;;;;19.44;100.00;100326.53;5265965;28;20024;-72
2023/07/27 10:33:15;;;;;;;1.27;1.10;;;;;;;19.51;100.00;100332.03;5262703;28;20029;-70
2023/07/27 10:36:03;;;;;;;1.57;0.80;;;;;;;19.66;100.00;100324.22;5263899;28;20593;-73
2023/07/27 10:38:38;;;;;;;1.73;0.90;;;;;;;19.43;100.00;100309.75;5254174;28;20012;-70
2023/07/27 10:41:14;;;;;;;1.93;0.90;;;;;;;19.49;100.00;100326.88;5275817;28;20024;-72
2023/07/27 10:44:07;;;;;;;1.60;1.10;;;;;;;19.61;100.00;100331.84;5276164;28;20430;-71
2023/07/27 10:46:38;;;;;;;1.23;0.90;;;;;;;19.34;100.00;100326.66;5266910;28;20043;-72
2023/07/27 10:49:11;;;;;;;1.40;0.90;;;;;;;19.41;100.00;100326.88;5251935;28;20024;-72
2023/07/27 10:51:47;;;;;;;1.70;0.80;;;;;;;19.42;100.00;100324.06;5267857;28;20434;-73
2023/07/27 10:54:19;;;;;;;1.07;0.80;;;;;;;19.49;100.00;100324.22;5267461;28;20028;-73
2023/07/27 10:56:51;;;;;;;3.77;0.87;;;;;;;19.46;100.00;100316.59;5272144;28;20029;-73
2023/07/27 10:59:26;;;;;;;0.87;0.80;;;;;;;19.56;100.00;100322.56;5250231;28;20021;-71
2023/07/27 11:01:57;;;;;;;2.37;1.03;;;;;;;19.49;100.00;100334.84;5267771;28;20028;-69
2023/07/27 11:04:29;;;;;;;1.93;1.00;;;;;;;19.49;100.00;100331.34;5269069;28;20051;-68
2023/07/27 11:07:00;;;;;;;3.87;0.90;;;;;;;19.49;100.00;100328.69;5270656;28;20410;-69
2023/07/27 11:09:32;;;;;;;1.23;0.80;;;;;;;19.42;100.00;100328.53;5274820;28;20475;-70
2023/07/27 11:12:04;;;;;;;3.20;2.20;;;;;;;19.45;100.00;100330.84;5274370;28;20028;-70
2023/07/27 11:14:35;;;;;;;2.17;0.87;;;;;;;19.41;100.00;100330.34;5257613;28;20047;-70
2023/07/27 11:17:07;;;;;;;1.33;0.90;;;;;;;19.51;100.00;100316.09;5273489;28;20016;-72
2023/07/27 11:19:38;;;;;;;2.57;0.90;;;;;;;19.49;100.00;100316.25;5275657;28;20036;-72
2023/07/27 11:22:10;;;;;;;2.03;1.00;;;;;;;19.60;100.00;100315.13;5273968;28;20381;-71
2023/07/27 11:24:41;;;;;;;1.30;0.90;;;;;;;19.68;100.00;100311.63;5275167;28;20131;-71
2023/07/27 11:27:13;;;;;;;2.07;1.40;;;;;;;19.70;100.00;100314.94;5275094;28;20024;-73
2023/07/27 11:29:46;;;;;;;1.00;0.80;;;;;;;19.70;100.00;100309.63;5274641;28;20043;-73
2023/07/27 11:32:24;;;;;;;0.80;0.80;;;;;;;19.86;100.00;100315.94;5273769;28;20029;-72
2023/07/27 11:34:56;;;;;;;1.10;0.90;;;;;;;19.74;100.00;100310.94;5244686;28;20051;-72
2023/07/27 11:37:30;;;;;;;3.97;0.80;;;;;;;19.72;100.00;100318.28;5274550;28;20020;-72
2023/07/27 11:40:01;;;;;;;;;;;;;;;20.22;100.00;100312.09;5262740;28;20036;-72
2023/07/27 11:42:36;;;;;;;2.67;0.80;;;;;;;19.89;100.00;100315.59;5274610;28;19935;-72